createdAt,value
2022-08-25T00:18:21.057Z,19.11
2022-08-25T00:23:28.685Z,19.04
2022-08-25T00:33:32.288Z,19.04
2022-08-25T00:43:36.128Z,18.95
2022-08-25T00:53:38.997Z,18.9
2022-08-25T00:58:40.668Z,18.83
2022-08-25T01:03:42.768Z,18.77
2022-08-25T01:08:44.883Z,18.71
2022-08-25T01:28:52.197Z,18.56
2022-08-25T01:43:57.012Z,18.31
2022-08-25T01:48:58.513Z,18.26
2022-08-25T01:54:01.079Z,18.23
2022-08-25T02:04:03.934Z,18.28
2022-08-25T02:09:06.145Z,18.27
2022-08-25T02:14:07.465Z,18.23
2022-08-25T02:19:08.914Z,18.2
2022-08-25T02:24:11.016Z,18.15
2022-08-25T02:29:12.247Z,18.09
2022-08-25T02:34:13.645Z,18.01
2022-08-25T02:44:16.634Z,17.96
2022-08-25T02:49:18.723Z,17.95
2022-08-25T02:54:20.664Z,17.87
2022-08-25T02:59:22.556Z,17.87
2022-08-25T03:04:24.483Z,17.86
2022-08-25T03:09:26.439Z,17.79
2022-08-25T03:14:28.260Z,17.76
2022-08-25T03:19:29.979Z,17.7
2022-08-25T03:24:31.510Z,17.65
2022-08-25T03:29:33.123Z,17.64
2022-08-25T03:34:35.250Z,17.67
2022-08-25T03:39:37.136Z,17.67
2022-08-25T03:44:39.266Z,17.65
2022-08-25T03:49:41.053Z,17.62
2022-08-25T03:54:43.137Z,17.59
2022-08-25T03:59:44.710Z,17.52
2022-08-25T04:04:46.424Z,17.45
2022-08-25T04:09:47.626Z,17.36
2022-08-25T04:14:49.481Z,17.31
2022-08-25T04:19:51.253Z,17.26
2022-08-25T04:24:52.707Z,17.28
2022-08-25T04:29:54.189Z,17.28
2022-08-25T04:34:55.936Z,17.26
2022-08-25T04:39:57.241Z,17.24
2022-08-25T04:44:59.286Z,17.25
2022-08-25T04:50:01.079Z,17.23
2022-08-25T04:55:02.997Z,17.23
2022-08-25T05:00:05.161Z,17.21
2022-08-25T05:05:07.214Z,17.2
2022-08-25T05:10:08.413Z,17.23
2022-08-25T05:15:09.770Z,17.36
2022-08-25T05:20:10.943Z,17.48
2022-08-25T05:25:12.224Z,17.49
2022-08-25T05:30:14.280Z,17.57
2022-08-25T05:35:16.173Z,17.74
2022-08-25T05:40:17.822Z,17.96
2022-08-25T05:45:20.551Z,18.23
2022-08-25T05:50:20.566Z,18.58
2022-08-25T05:55:22.345Z,19.31
2022-08-25T06:00:24.543Z,20.03
2022-08-25T06:05:26.384Z,20.45
2022-08-25T06:10:28.022Z,20.83
2022-08-25T06:15:29.563Z,21.2
2022-08-25T06:20:30.957Z,21.63
2022-08-25T06:25:32.443Z,22.01
2022-08-25T06:30:34.211Z,22.67
2022-08-25T06:35:35.827Z,23.05
2022-08-25T06:40:37.776Z,23.3
2022-08-25T06:45:39.389Z,23.58
2022-08-25T06:50:41.009Z,23.71
2022-08-25T06:55:42.489Z,23.62
2022-08-25T07:00:44.207Z,23.91
2022-08-25T07:05:45.923Z,24.44
2022-08-25T07:10:48.049Z,24.72
2022-08-25T07:15:49.059Z,24.77
2022-08-25T07:20:50.398Z,24.83
2022-08-25T07:25:52.134Z,25.07
2022-08-25T07:30:53.337Z,25.44
2022-08-25T07:35:54.961Z,25.53
2022-08-25T07:40:57.150Z,25.85
2022-08-25T07:45:58.388Z,26.44
2022-08-25T07:51:01.084Z,26.23
2022-08-25T08:01:03.080Z,26.66
2022-08-25T08:06:05.091Z,26.75
2022-08-25T08:11:06.489Z,26.81
2022-08-25T08:16:07.714Z,27.22
2022-08-25T08:21:08.867Z,27.28
2022-08-25T08:26:10.407Z,27.81
2022-08-25T08:31:12.607Z,28.34
2022-08-25T08:36:14.449Z,28.48
2022-08-25T08:41:16.449Z,28.5
2022-08-25T08:46:18.109Z,28.14
2022-08-25T08:51:19.807Z,27.89
2022-08-25T08:56:21.486Z,27.65
2022-08-25T09:01:22.958Z,27.82
2022-08-25T09:06:24.227Z,28.14
2022-08-25T09:11:26.520Z,28.73
2022-08-25T09:16:31.850Z,29.39
2022-08-25T09:21:28.986Z,29.98
2022-08-25T09:26:30.585Z,30.3
2022-08-25T09:31:32.238Z,30.81
2022-08-25T09:36:37.369Z,31.04
2022-08-25T09:41:35.779Z,30.83
2022-08-25T09:46:37.558Z,31.19
2022-08-25T09:51:42.247Z,31.22
2022-08-25T09:56:40.353Z,31.36
2022-08-25T10:01:41.545Z,31.25
2022-08-25T10:06:42.824Z,31.38
2022-08-25T10:11:44.627Z,31.41
2022-08-25T10:16:46.813Z,31.64
2022-08-25T10:21:47.502Z,31.43
2022-08-25T10:26:49.534Z,31.58
2022-08-25T10:31:51.537Z,31.18
2022-08-25T10:36:52.841Z,31.55
2022-08-25T10:41:54.335Z,31.29
2022-08-25T10:46:56.005Z,30.36
2022-08-25T10:51:58.115Z,30.18
2022-08-25T10:57:01.628Z,30.54
2022-08-25T11:02:01.156Z,30.5
2022-08-25T11:07:03.080Z,29.72
2022-08-25T11:12:05.262Z,29.32
2022-08-25T11:17:07.390Z,28.94
2022-08-25T11:22:08.760Z,28.8
2022-08-25T11:27:10.540Z,28.81
2022-08-25T11:32:11.723Z,28.66
2022-08-25T11:37:13.541Z,28.76
2022-08-25T11:42:15.609Z,28.91
2022-08-25T11:47:21.363Z,28.81
2022-08-25T11:52:19.673Z,28.74
2022-08-25T11:57:21.113Z,28.65
2022-08-25T12:02:22.844Z,28.43
2022-08-25T12:12:26.199Z,28.39
2022-08-25T12:17:28.166Z,28.4
2022-08-25T12:22:29.533Z,28.33
2022-08-25T12:27:33.466Z,28.26
2022-08-25T12:32:33.434Z,28.23
2022-08-25T12:37:34.951Z,28.15
2022-08-25T12:42:36.831Z,28.23
2022-08-25T12:47:40.828Z,28.44
2022-08-25T12:52:40.674Z,28.6
2022-08-25T12:57:42.393Z,28.6
2022-08-25T13:02:45.062Z,28.57
2022-08-25T13:07:45.582Z,28.53
2022-08-25T13:12:47.659Z,28.58
2022-08-25T13:17:48.967Z,28.65
2022-08-25T13:22:53.956Z,28.68
2022-08-25T13:27:52.885Z,28.33
2022-08-25T13:32:54.291Z,28.39
2022-08-25T13:37:55.598Z,28.35
2022-08-25T13:42:57.534Z,28.56
2022-08-25T13:47:58.714Z,28.35
2022-08-25T13:53:01.058Z,28.6
2022-08-25T13:58:01.700Z,28.72
2022-08-25T14:03:03.729Z,28.72
2022-08-25T14:08:09.541Z,28.86
2022-08-25T14:13:07.340Z,28.86
2022-08-25T14:38:15.506Z,28.66
2022-08-25T14:53:20.458Z,28.21
2022-08-25T15:08:28.003Z,28.42
2022-08-25T15:28:31.202Z,28.59
2022-08-25T15:43:36.663Z,28.89
2022-08-25T15:48:38.673Z,28.75
2022-08-25T15:53:39.870Z,28.74
2022-08-25T16:03:42.596Z,28.92
2022-08-25T16:23:47.959Z,28.36
2022-08-25T16:38:53.678Z,28.11
2022-08-25T16:43:55.495Z,27.99
2022-08-25T16:48:57.253Z,27.86
2022-08-25T16:53:59.180Z,27.68
2022-08-25T17:04:02.572Z,27.55
2022-08-25T17:04:08.874Z,27.55
2022-08-25T17:09:10.756Z,27.56
2022-08-25T17:14:12.792Z,27.51
2022-08-25T17:19:14.923Z,27.37
2022-08-25T17:29:18.047Z,27.15
2022-08-25T17:34:20.302Z,27.03
2022-08-25T17:39:22.204Z,27
2022-08-25T17:44:22.719Z,26.97
2022-08-25T17:49:24.358Z,26.86
2022-08-25T17:54:26.073Z,26.74
2022-08-25T17:59:27.384Z,26.61
2022-08-25T18:04:29.615Z,26.46
2022-08-25T18:09:30.473Z,26.28
2022-08-25T18:14:32.205Z,26.23
2022-08-25T18:19:33.589Z,26.13
2022-08-25T18:24:35.001Z,26.01
2022-08-25T18:29:36.977Z,25.86
2022-08-25T18:34:38.162Z,25.73
2022-08-25T18:39:39.678Z,25.62
2022-08-25T18:44:43.761Z,25.48
2022-08-25T18:49:42.763Z,25.46
2022-08-25T18:54:44.068Z,25.38
2022-08-25T18:59:45.849Z,25.26
2022-08-25T19:04:47.500Z,25.16
2022-08-25T19:09:49.130Z,25.08
2022-08-25T19:14:51.113Z,25
2022-08-25T19:19:52.314Z,24.91
2022-08-25T19:24:53.836Z,24.94
2022-08-25T19:29:55.418Z,24.93
2022-08-25T19:34:57.313Z,24.83
2022-08-25T19:39:59.139Z,24.72
2022-08-25T19:45:01.159Z,24.64
2022-08-25T19:50:02.935Z,24.55
2022-08-25T19:55:04.506Z,24.45
2022-08-25T20:00:06.204Z,24.45
2022-08-25T20:05:08.184Z,24.41
2022-08-25T20:10:09.842Z,24.3
2022-08-25T20:15:11.988Z,24.2
2022-08-25T20:20:13.991Z,24.11
2022-08-25T20:25:15.662Z,24.01
2022-08-25T20:30:17.588Z,23.89
2022-08-25T20:35:18.893Z,23.85
2022-08-25T20:40:25.317Z,23.79
2022-08-25T20:45:22.737Z,23.67
2022-08-25T20:50:24.525Z,23.6
2022-08-25T20:55:26.505Z,23.49
2022-08-25T21:00:27.774Z,23.36
2022-08-25T21:05:29.887Z,23.25
2022-08-25T21:10:31.566Z,23.27
2022-08-25T21:15:32.993Z,23.2
2022-08-25T21:20:34.192Z,23.09
2022-08-25T21:25:35.890Z,23.02
2022-08-25T21:30:37.613Z,22.92
2022-08-25T21:35:39.623Z,22.79
2022-08-25T21:40:41.091Z,22.7
2022-08-25T21:45:46.537Z,22.71
2022-08-25T21:50:43.748Z,22.68
2022-08-25T21:55:45.802Z,22.53
2022-08-25T22:15:52.970Z,22.14
2022-08-25T22:20:54.932Z,22.15
2022-08-25T22:25:56.201Z,22.09
2022-08-25T22:30:58.276Z,22.03
2022-08-25T22:36:00.210Z,21.95
2022-08-25T22:41:01.648Z,21.85
2022-08-25T22:46:03.128Z,21.76
2022-08-25T22:51:04.371Z,21.67
2022-08-25T22:56:06.458Z,21.66
2022-08-25T23:01:07.648Z,21.68
2022-08-25T23:06:09.213Z,21.56
2022-08-25T23:11:10.427Z,21.53
2022-08-25T23:16:12.239Z,21.45
2022-08-25T23:21:14.306Z,21.36
2022-08-25T23:26:16.200Z,21.25
2022-08-25T23:31:17.612Z,21.21
2022-08-25T23:36:18.887Z,21.24
2022-08-25T23:41:20.946Z,21.15
2022-08-25T23:46:22.576Z,21.09
2022-08-25T23:51:23.997Z,21.02
2022-08-25T23:56:25.685Z,20.92
